Time;durP1;ratioP1;P1;durP2;ratioP2;P2;SDS_P1;SDS_P2;PMS_P1;PMS_P2;Temp;Humidity;BMP_temperature;BMP_pressure;BME280_temperature;BME280_humidity;BME280_pressure;Samples;Min_cycle;Max_cycle;Signal;HPM_P1;HPM_P2
2021/08/03 00:00:22;;;;;;;4.90;3.92;;;;;;;;;;5095195;28;20472;-72
2021/08/03 00:02:48;;;;;;;5.57;3.85;;;;;;;;;;5094629;28;20024;-72
2021/08/03 00:05:16;;;;;;;3.90;3.58;;;;;;;;;;5094312;28;20034;-72
2021/08/03 00:07:43;;;;;;;4.03;3.70;;;;;;;;;;5094978;28;20016;-72
2021/08/03 00:10:09;;;;;;;5.55;3.45;;;;;;;;;;5094647;28;20027;-72
2021/08/03 00:12:35;;;;;;;7.15;4.88;;;;;;;;;;5094663;28;20027;-72
2021/08/03 00:15:01;;;;;;;5.28;3.63;;;;;;;;;;5094884;28;20064;-72
2021/08/03 00:17:27;;;;;;;5.97;4.18;;;;;;;;;;5094630;28;20024;-72
2021/08/03 00:19:53;;;;;;;6.65;4.07;;;;;;;;;;5094443;28;20034;-72
2021/08/03 00:22:23;;;;;;;7.18;4.07;;;;;;;;;;5095092;28;20115;-72
2021/08/03 00:24:49;;;;;;;6.40;4.05;;;;;;;;;;5094353;28;20043;-72
2021/08/03 00:27:15;;;;;;;5.25;3.75;;;;;;;;;;5094370;28;20020;-72
2021/08/03 00:29:41;;;;;;;5.57;3.70;;;;;;;;;;5094341;28;20031;-72
2021/08/03 00:32:08;;;;;;;4.15;3.47;;;;;;;;;;5094343;28;20101;-72
2021/08/03 00:34:35;;;;;;;5.72;3.95;;;;;;;;;;5093900;28;20032;-72
2021/08/03 00:37:01;;;;;;;4.45;3.90;;;;;;;;;;5094490;28;20107;-72
2021/08/03 00:39:27;;;;;;;3.85;3.33;;;;;;;;;;5094267;28;20032;-72
2021/08/03 00:41:55;;;;;;;7.38;3.60;;;;;;;;;;5094342;28;20461;-72
2021/08/03 00:44:36;;;;;;;4.90;3.67;;;;;;;;;;5094165;28;20082;-72
2021/08/03 00:47:02;;;;;;;3.60;3.30;;;;;;;;;;5094148;28;20028;-72
2021/08/03 00:49:28;;;;;;;3.35;3.05;;;;;;;;;;5093871;28;20377;-72
2021/08/03 00:51:54;;;;;;;4.95;3.55;;;;;;;;;;5094027;28;20032;-72
2021/08/03 00:54:20;;;;;;;7.43;3.15;;;;;;;;;;5094255;28;20189;-72
2021/08/03 00:56:46;;;;;;;4.25;3.03;;;;;;;;;;5094014;28;20024;-72
2021/08/03 00:59:12;;;;;;;3.53;3.22;;;;;;;;;;5093825;28;20032;-72
2021/08/03 01:01:39;;;;;;;7.90;3.35;;;;;;;;;;5093821;28;20134;-72
2021/08/03 01:04:06;;;;;;;3.35;3.08;;;;;;;;;;5094049;28;20485;-72
2021/08/03 01:06:52;;;;;;;5.35;3.35;;;;;;;;;;5093779;28;20028;-72
2021/08/03 01:09:22;;;;;;;3.92;3.35;;;;;;;;;;5085513;28;20020;-72
2021/08/03 01:11:56;;;;;;;3.35;3.05;;;;;;;;;;5100393;28;20023;-72
2021/08/03 01:14:28;;;;;;;8.02;4.22;;;;;;;;;;5100557;28;20036;-72
2021/08/03 01:16:56;;;;;;;5.72;3.28;;;;;;;;;;5100620;28;20030;-72
2021/08/03 01:19:23;;;;;;;6.43;3.35;;;;;;;;;;5100535;28;20107;-72
2021/08/03 01:21:50;;;;;;;5.90;3.13;;;;;;;;;;5100373;28;20504;-72
2021/08/03 01:24:36;;;;;;;3.03;2.72;;;;;;;;;;5100535;28;20041;-72
2021/08/03 01:27:18;;;;;;;3.78;3.40;;;;;;;;;;5085727;28;20023;-72
2021/08/03 01:29:44;;;;;;;5.82;2.85;;;;;;;;;;5100703;28;20026;-72
2021/08/03 01:32:10;;;;;;;3.28;2.97;;;;;;;;;;5101274;28;20020;-72
2021/08/03 01:34:38;;;;;;;4.80;3.15;;;;;;;;;;5100687;28;20032;-72
2021/08/03 01:37:05;;;;;;;6.35;2.75;;;;;;;;;;5100304;28;20051;-72
2021/08/03 01:39:38;;;;;;;4.28;3.10;;;;;;;;;;5100611;28;20020;-72
2021/08/03 01:42:05;;;;;;;3.25;2.80;;;;;;;;;;5100268;28;20540;-72
2021/08/03 01:44:32;;;;;;;13.80;3.53;;;;;;;;;;5100400;28;20385;-72
2021/08/03 01:46:58;;;;;;;3.95;3.17;;;;;;;;;;5100300;28;20020;-71
2021/08/03 01:49:24;;;;;;;5.10;3.47;;;;;;;;;;5100459;28;20028;-72
2021/08/03 01:51:50;;;;;;;3.67;3.38;;;;;;;;;;5099898;28;20366;-73
2021/08/03 01:54:17;;;;;;;3.60;3.13;;;;;;;;;;5100419;28;20478;-72
2021/08/03 01:56:43;;;;;;;3.65;2.95;;;;;;;;;;5100284;28;20024;-72
2021/08/03 01:59:09;;;;;;;3.40;3.10;;;;;;;;;;5100174;28;20016;-72
2021/08/03 02:01:35;;;;;;;3.35;3.05;;;;;;;;;;5100413;28;20457;-72
2021/08/03 02:04:01;;;;;;;6.05;3.25;;;;;;;;;;5099944;28;20032;-72
2021/08/03 02:06:27;;;;;;;3.97;3.30;;;;;;;;;;5099908;28;20342;-72
2021/08/03 02:08:55;;;;;;;2.83;2.63;;;;;;;;;;5100823;28;20528;-72
2021/08/03 02:11:23;;;;;;;3.35;3.05;;;;;;;;;;5100366;28;20457;-72
2021/08/03 02:13:49;;;;;;;5.45;3.08;;;;;;;;;;5100256;28;20063;-72
2021/08/03 02:16:16;;;;;;;3.60;3.13;;;;;;;;;;5099867;28;20031;-72
2021/08/03 02:18:45;;;;;;;2.85;2.55;;;;;;;;;;5099451;28;20073;-72
2021/08/03 02:21:12;;;;;;;4.13;2.97;;;;;;;;;;5096038;28;20075;-73
2021/08/03 02:23:38;;;;;;;8.48;3.00;;;;;;;;;;5096923;28;20042;-72
2021/08/03 02:26:04;;;;;;;3.88;3.58;;;;;;;;;;5096735;28;20020;-72
2021/08/03 02:28:30;;;;;;;3.70;2.80;;;;;;;;;;5096668;28;20051;-72
2021/08/03 02:30:56;;;;;;;3.10;2.80;;;;;;;;;;5096625;28;20031;-72
2021/08/03 02:33:23;;;;;;;3.30;2.97;;;;;;;;;;5096352;28;20032;-72
2021/08/03 02:35:51;;;;;;;2.75;2.55;;;;;;;;;;5096121;28;20350;-72
2021/08/03 02:38:19;;;;;;;4.45;2.92;;;;;;;;;;5097055;28;20024;-72
2021/08/03 02:40:45;;;;;;;3.80;2.80;;;;;;;;;;5096349;28;20117;-72
2021/08/03 02:43:11;;;;;;;3.78;2.65;;;;;;;;;;5096821;28;20040;-72
2021/08/03 02:45:40;;;;;;;8.50;2.58;;;;;;;;;;5096371;28;20036;-72
2021/08/03 02:48:11;;;;;;;5.65;2.80;;;;;;;;;;5096189;28;20028;-72
2021/08/03 02:50:37;;;;;;;6.38;3.25;;;;;;;;;;5096707;28;20491;-72
2021/08/03 02:53:05;;;;;;;3.00;2.70;;;;;;;;;;5095827;28;20055;-72
2021/08/03 02:55:35;;;;;;;8.20;3.22;;;;;;;;;;5096028;28;20028;-72
2021/08/03 02:58:03;;;;;;;2.60;2.40;;;;;;;;;;5095958;28;20492;-71
2021/08/03 03:00:29;;;;;;;2.90;2.60;;;;;;;;;;5095831;28;20028;-72
2021/08/03 03:02:55;;;;;;;2.88;2.67;;;;;;;;;;5095817;28;20361;-72
2021/08/03 03:05:25;;;;;;;4.05;2.83;;;;;;;;;;5095985;28;20039;-72
2021/08/03 03:07:52;;;;;;;2.72;2.53;;;;;;;;;;5096221;28;20434;-73
2021/08/03 03:10:19;;;;;;;5.13;3.05;;;;;;;;;;5095726;28;20024;-72
2021/08/03 03:12:47;;;;;;;7.80;4.13;;;;;;;;;;5096053;28;20033;-72
2021/08/03 03:15:14;;;;;;;274.50;82.35;;;;;;;;;;5095208;28;20024;-73
2021/08/03 03:17:40;;;;;;;159.82;51.80;;;;;;;;;;5095274;28;20353;-72
2021/08/03 03:20:06;;;;;;;88.07;27.13;;;;;;;;;;5095643;28;20028;-72
2021/08/03 03:22:33;;;;;;;63.92;19.92;;;;;;;;;;5095838;28;20028;-72
2021/08/03 03:24:59;;;;;;;35.78;14.18;;;;;;;;;;5095683;28;20036;-72
2021/08/03 03:27:26;;;;;;;44.78;15.15;;;;;;;;;;5094891;28;20020;-73
2021/08/03 03:29:52;;;;;;;37.55;12.88;;;;;;;;;;5095090;28;20467;-73
2021/08/03 03:32:18;;;;;;;25.77;11.27;;;;;;;;;;5094513;28;20028;-72
2021/08/03 03:34:44;;;;;;;27.42;11.95;;;;;;;;;;5095362;28;20103;-72
2021/08/03 03:37:10;;;;;;;29.33;11.43;;;;;;;;;;5095797;28;20024;-72
2021/08/03 03:39:36;;;;;;;27.90;10.27;;;;;;;;;;5095331;28;20051;-72
2021/08/03 03:42:04;;;;;;;23.25;8.15;;;;;;;;;;5095472;28;20051;-72
2021/08/03 03:44:31;;;;;;;20.98;8.50;;;;;;;;;;5095186;28;20511;-72
2021/08/03 03:46:58;;;;;;;19.60;7.78;;;;;;;;;;5095130;28;20036;-72
2021/08/03 03:49:25;;;;;;;20.02;7.10;;;;;;;;;;5094979;28;20024;-72
2021/08/03 03:51:51;;;;;;;15.43;5.97;;;;;;;;;;5094879;28;20063;-73
2021/08/03 03:54:19;;;;;;;14.45;6.80;;;;;;;;;;5095281;28;20028;-72
2021/08/03 03:56:54;;;;;;;12.70;7.45;;;;;;;;;;5095195;28;20094;-72
2021/08/03 03:59:21;;;;;;;22.45;6.65;;;;;;;;;;5094890;28;20035;-72
2021/08/03 04:01:49;;;;;;;12.73;5.25;;;;;;;;;;5095590;28;20031;-72
2021/08/03 04:04:15;;;;;;;7.82;5.00;;;;;;;;;;5094955;28;20097;-72
2021/08/03 04:06:41;;;;;;;14.27;6.20;;;;;;;;;;5094810;28;20028;-71
2021/08/03 04:09:16;;;;;;;9.20;4.63;;;;;;;;;;5095091;28;20059;-71
2021/08/03 04:11:44;;;;;;;11.13;4.75;;;;;;;;;;5094777;28;20020;-71
2021/08/03 04:14:10;;;;;;;12.38;5.15;;;;;;;;;;5094610;28;20023;-72
2021/08/03 04:16:36;;;;;;;5.57;3.80;;;;;;;;;;5094579;28;20043;-72
2021/08/03 04:19:02;;;;;;;8.50;4.53;;;;;;;;;;5094996;28;20073;-71
2021/08/03 04:21:28;;;;;;;7.25;3.80;;;;;;;;;;5094850;28;20024;-72
2021/08/03 04:23:54;;;;;;;5.40;3.40;;;;;;;;;;5094251;28;20032;-72
2021/08/03 04:26:20;;;;;;;10.25;4.32;;;;;;;;;;5094328;28;20469;-72
2021/08/03 04:28:46;;;;;;;6.78;4.13;;;;;;;;;;5094222;28;20385;-72
2021/08/03 04:31:12;;;;;;;7.43;4.38;;;;;;;;;;5094137;28;20373;-71
2021/08/03 04:33:39;;;;;;;10.05;3.50;;;;;;;;;;5094571;28;20031;-71
2021/08/03 04:36:05;;;;;;;5.43;3.60;;;;;;;;;;5094253;28;20051;-72
2021/08/03 04:38:31;;;;;;;6.72;3.55;;;;;;;;;;5094372;28;20024;-71
2021/08/03 04:40:57;;;;;;;6.55;3.70;;;;;;;;;;5094109;28;20028;-72
2021/08/03 04:43:23;;;;;;;8.82;3.45;;;;;;;;;;5093542;28;20101;-71
2021/08/03 04:45:49;;;;;;;6.22;3.13;;;;;;;;;;5094697;28;20032;-71
2021/08/03 04:48:15;;;;;;;7.03;2.85;;;;;;;;;;5094329;28;20478;-72
2021/08/03 04:50:41;;;;;;;4.20;2.70;;;;;;;;;;5094449;28;20089;-71
2021/08/03 04:53:07;;;;;;;6.28;2.95;;;;;;;;;;5094388;28;20435;-72
2021/08/03 04:55:33;;;;;;;2.65;2.42;;;;;;;;;;5093930;28;20385;-72
2021/08/03 04:57:59;;;;;;;3.22;2.60;;;;;;;;;;5093827;28;20051;-72
2021/08/03 05:00:25;;;;;;;3.67;3.30;;;;;;;;;;5093942;28;20020;-71
2021/08/03 05:02:51;;;;;;;5.25;2.90;;;;;;;;;;5093921;28;20031;-71
2021/08/03 05:05:17;;;;;;;6.35;2.97;;;;;;;;;;5093801;28;20031;-71
2021/08/03 05:07:59;;;;;;;8.05;3.42;;;;;;;;;;5093884;28;20027;-72
2021/08/03 05:10:25;;;;;;;;;;;;;;;;;;5094381;28;20056;-72
2021/08/03 05:12:51;;;;;;;4.03;3.00;;;;;;;;;;5094041;28;19915;-71
2021/08/03 05:15:18;;;;;;;7.72;4.28;;;;;;;;;;5092113;28;20020;-72
2021/08/03 05:17:44;;;;;;;6.45;3.80;;;;;;;;;;5092209;28;20102;-73
2021/08/03 05:20:10;;;;;;;5.55;3.25;;;;;;;;;;5092128;28;20016;-74
2021/08/03 05:22:36;;;;;;;8.02;3.72;;;;;;;;;;5092143;28;20030;-72
2021/08/03 05:25:03;;;;;;;6.40;3.28;;;;;;;;;;5092079;28;20523;-72
2021/08/03 05:27:29;;;;;;;3.95;2.83;;;;;;;;;;5092315;28;20043;-72
2021/08/03 05:29:55;;;;;;;5.30;3.42;;;;;;;;;;5092089;28;20069;-72
2021/08/03 05:32:21;;;;;;;7.75;3.03;;;;;;;;;;5092113;28;20036;-71
2021/08/03 05:34:47;;;;;;;3.58;3.10;;;;;;;;;;5092024;28;20465;-72
2021/08/03 05:37:13;;;;;;;5.07;3.03;;;;;;;;;;5092003;28;20384;-71
2021/08/03 05:39:39;;;;;;;4.72;2.60;;;;;;;;;;5091720;28;20024;-72
2021/08/03 05:42:05;;;;;;;4.25;2.80;;;;;;;;;;5091989;28;20026;-72
2021/08/03 05:44:31;;;;;;;3.40;3.10;;;;;;;;;;5083729;28;20064;-72
2021/08/03 05:46:57;;;;;;;2.63;2.33;;;;;;;;;;5082043;28;20027;-72
2021/08/03 05:49:24;;;;;;;3.38;2.65;;;;;;;;;;5082556;28;20013;-71
2021/08/03 05:51:50;;;;;;;3.97;3.53;;;;;;;;;;5080477;28;20028;-72
2021/08/03 05:54:16;;;;;;;3.53;2.70;;;;;;;;;;5082517;28;20485;-74
2021/08/03 05:56:42;;;;;;;2.63;2.42;;;;;;;;;;5085840;28;20591;-73
2021/08/03 05:59:08;;;;;;;5.03;2.67;;;;;;;;;;5084828;28;20020;-72
2021/08/03 06:01:34;;;;;;;4.20;2.80;;;;;;;;;;5089453;28;20492;-71
2021/08/03 06:04:00;;;;;;;3.70;2.58;;;;;;;;;;5085592;28;20101;-71
2021/08/03 06:06:27;;;;;;;8.48;3.20;;;;;;;;;;5086184;28;20025;-70
2021/08/03 06:08:53;;;;;;;3.75;2.88;;;;;;;;;;5084397;28;20428;-72
2021/08/03 06:11:24;;;;;;;2.85;2.50;;;;;;;;;;5086341;28;20020;-72
2021/08/03 06:13:53;;;;;;;2.90;2.60;;;;;;;;;;5086675;28;20028;-71
2021/08/03 06:16:20;;;;;;;3.70;3.03;;;;;;;;;;5084940;28;20012;-72
2021/08/03 06:18:46;;;;;;;3.10;2.88;;;;;;;;;;5084649;28;20103;-72
2021/08/03 06:21:13;;;;;;;2.40;2.20;;;;;;;;;;5084962;28;20023;-71
2021/08/03 06:23:39;;;;;;;3.30;2.97;;;;;;;;;;5086352;28;20035;-71
2021/08/03 06:26:05;;;;;;;5.57;2.83;;;;;;;;;;5084725;28;20028;-71
2021/08/03 06:28:31;;;;;;;3.05;2.58;;;;;;;;;;5085255;28;20393;-71
2021/08/03 06:30:58;;;;;;;3.15;2.60;;;;;;;;;;5086108;28;20458;-73
2021/08/03 06:33:24;;;;;;;2.47;2.28;;;;;;;;;;5092542;28;20035;-73
2021/08/03 06:35:51;;;;;;;10.77;3.13;;;;;;;;;;5095611;28;20020;-73
2021/08/03 06:38:17;;;;;;;3.65;2.08;;;;;;;;;;5095012;28;20020;-73
2021/08/03 06:41:04;;;;;;;3.45;2.50;;;;;;;;;;5095340;28;20024;-73
2021/08/03 06:43:31;;;;;;;4.97;2.95;;;;;;;;;;5073603;28;20028;-73
2021/08/03 06:46:02;;;;;;;10.02;2.88;;;;;;;;;;5095720;28;20047;-74
2021/08/03 06:48:30;;;;;;;3.65;2.80;;;;;;;;;;5095532;28;20536;-76
2021/08/03 06:50:58;;;;;;;3.10;2.78;;;;;;;;;;5095672;28;20474;-71
2021/08/03 06:53:24;;;;;;;2.70;2.45;;;;;;;;;;5096087;28;20123;-70
2021/08/03 06:55:50;;;;;;;2.53;2.33;;;;;;;;;;5096532;28;20020;-71
2021/08/03 06:58:22;;;;;;;2.80;2.30;;;;;;;;;;5096101;28;20027;-70
2021/08/03 07:00:48;;;;;;;9.25;2.17;;;;;;;;;;5096019;28;20055;-70
2021/08/03 07:03:14;;;;;;;4.05;2.65;;;;;;;;;;5095808;28;20462;-71
2021/08/03 07:05:51;;;;;;;5.22;2.75;;;;;;;;;;5095009;28;20386;-71
2021/08/03 07:08:17;;;;;;;11.63;2.97;;;;;;;;;;5096507;28;20020;-70
2021/08/03 07:10:43;;;;;;;2.95;2.42;;;;;;;;;;5095768;28;20062;-72
2021/08/03 07:13:10;;;;;;;2.80;2.50;;;;;;;;;;5090094;28;20055;-74
2021/08/03 07:15:37;;;;;;;4.60;2.92;;;;;;;;;;5074919;28;20070;-71
2021/08/03 07:18:03;;;;;;;8.68;2.42;;;;;;;;;;5074239;28;20111;-71
2021/08/03 07:20:29;;;;;;;8.23;2.72;;;;;;;;;;5081006;28;20028;-72
2021/08/03 07:22:55;;;;;;;8.13;3.95;;;;;;;;;;5094638;28;20114;-74
2021/08/03 07:25:21;;;;;;;3.60;2.40;;;;;;;;;;5095105;28;20493;-72
2021/08/03 07:27:47;;;;;;;8.18;2.63;;;;;;;;;;5095344;28;20027;-73
2021/08/03 07:30:13;;;;;;;5.85;2.60;;;;;;;;;;5087615;28;20036;-75
2021/08/03 07:32:39;;;;;;;3.08;2.38;;;;;;;;;;5074762;28;20107;-72
2021/08/03 07:35:06;;;;;;;2.72;2.53;;;;;;;;;;5074522;28;20020;-72
2021/08/03 07:37:32;;;;;;;7.47;2.47;;;;;;;;;;5074926;28;20035;-71
2021/08/03 07:39:58;;;;;;;3.35;3.00;;;;;;;;;;5072676;28;20028;-77
2021/08/03 07:42:24;;;;;;;3.53;2.55;;;;;;;;;;5076560;28;20028;-75
2021/08/03 07:44:51;;;;;;;11.18;2.50;;;;;;;;;;5092449;28;20111;-73
2021/08/03 07:47:17;;;;;;;4.30;2.60;;;;;;;;;;5095341;28;20427;-75
2021/08/03 07:49:43;;;;;;;4.70;3.03;;;;;;;;;;5094216;28;20016;-75
2021/08/03 07:52:09;;;;;;;3.25;2.97;;;;;;;;;;5092214;28;20031;-75
2021/08/03 07:54:35;;;;;;;4.10;2.45;;;;;;;;;;5094830;28;20023;-72
2021/08/03 07:57:01;;;;;;;6.55;3.55;;;;;;;;;;5094405;28;20074;-72
2021/08/03 07:59:27;;;;;;;8.32;2.67;;;;;;;;;;5094326;28;20032;-72
2021/08/03 08:01:53;;;;;;;3.90;2.38;;;;;;;;;;5094217;28;20023;-72
2021/08/03 08:04:19;;;;;;;2.83;2.58;;;;;;;;;;5095471;28;20036;-72
2021/08/03 08:06:45;;;;;;;2.92;2.72;;;;;;;;;;5095282;28;20047;-72
2021/08/03 08:09:11;;;;;;;4.57;2.58;;;;;;;;;;5095057;28;20028;-72
2021/08/03 08:11:38;;;;;;;7.00;2.80;;;;;;;;;;5094920;28;20016;-71
2021/08/03 08:14:05;;;;;;;5.97;3.00;;;;;;;;;;5094734;28;20097;-72
2021/08/03 08:16:31;;;;;;;4.03;2.88;;;;;;;;;;5094392;28;20194;-72
2021/08/03 08:18:57;;;;;;;2.90;2.60;;;;;;;;;;5094422;28;20024;-72
2021/08/03 08:21:24;;;;;;;3.28;2.92;;;;;;;;;;5094665;28;20111;-71
2021/08/03 08:23:50;;;;;;;6.90;2.78;;;;;;;;;;5094582;28;20028;-69
2021/08/03 08:26:16;;;;;;;4.03;2.70;;;;;;;;;;5094397;28;20085;-70
2021/08/03 08:28:42;;;;;;;6.15;2.88;;;;;;;;;;5094171;28;20055;-71
2021/08/03 08:31:09;;;;;;;4.72;3.22;;;;;;;;;;5093757;28;20020;-71
2021/08/03 08:33:35;;;;;;;5.63;2.58;;;;;;;;;;5094544;28;20122;-71
2021/08/03 08:36:01;;;;;;;3.35;2.38;;;;;;;;;;5094299;28;20584;-71
2021/08/03 08:38:27;;;;;;;4.97;3.22;;;;;;;;;;5094100;28;20436;-72
2021/08/03 08:40:54;;;;;;;5.13;2.75;;;;;;;;;;5094032;28;20457;-70
2021/08/03 08:43:20;;;;;;;4.25;3.15;;;;;;;;;;5090806;28;20035;-72
2021/08/03 08:45:46;;;;;;;3.08;2.78;;;;;;;;;;5086349;28;20071;-70
2021/08/03 08:48:12;;;;;;;2.90;2.60;;;;;;;;;;5093464;28;20533;-71
2021/08/03 08:50:38;;;;;;;6.32;2.72;;;;;;;;;;5092639;28;20111;-69
2021/08/03 08:53:04;;;;;;;3.42;2.55;;;;;;;;;;5094665;28;20052;-70
2021/08/03 08:55:30;;;;;;;5.07;2.60;;;;;;;;;;5082762;28;20486;-71
2021/08/03 08:57:57;;;;;;;6.25;2.80;;;;;;;;;;5073379;28;20035;-69
2021/08/03 09:00:23;;;;;;;2.88;2.67;;;;;;;;;;5075035;28;20109;-69
2021/08/03 09:02:53;;;;;;;3.20;2.67;;;;;;;;;;5093374;28;20518;-71
2021/08/03 09:05:37;;;;;;;5.75;2.60;;;;;;;;;;5092602;28;20068;-72
2021/08/03 09:08:04;;;;;;;4.28;2.30;;;;;;;;;;5093459;28;20377;-71
2021/08/03 09:10:30;;;;;;;7.40;2.33;;;;;;;;;;5084721;28;20028;-71
2021/08/03 09:12:58;;;;;;;3.78;2.50;;;;;;;;;;5072878;28;20074;-69
2021/08/03 09:15:24;;;;;;;4.75;2.60;;;;;;;;;;5072810;28;20096;-70
2021/08/03 09:17:50;;;;;;;3.42;2.40;;;;;;;;;;5073335;28;20062;-70
2021/08/03 09:20:17;;;;;;;13.82;3.58;;;;;;;;;;5069991;28;20565;-71
2021/08/03 09:22:50;;;;;;;4.60;2.85;;;;;;;;;;5073080;28;20031;-71
2021/08/03 09:25:17;;;;;;;6.03;2.10;;;;;;;;;;5072815;28;20044;-72
2021/08/03 09:27:44;;;;;;;2.60;1.95;;;;;;;;;;5072590;28;20029;-72
2021/08/03 09:30:26;;;;;;;7.60;2.47;;;;;;;;;;5076313;28;20697;-73
2021/08/03 09:32:52;;;;;;;;;;;;;;;;;;5097628;28;20118;-74
2021/08/03 09:35:19;;;;;;;4.38;2.50;;;;;;;;;;5096538;28;19911;-73
2021/08/03 09:37:45;;;;;;;2.53;2.00;;;;;;;;;;5097272;28;20028;-73
2021/08/03 09:40:27;;;;;;;2.40;2.20;;;;;;;;;;5094200;28;20058;-72
2021/08/03 09:43:11;;;;;;;3.17;2.78;;;;;;;;;;5097857;28;20057;-72
2021/08/03 09:45:56;;;;;;;2.65;2.30;;;;;;;;;;5097118;28;20555;-72
2021/08/03 09:48:23;;;;;;;2.47;2.28;;;;;;;;;;5095489;28;20024;-72
2021/08/03 09:50:52;;;;;;;4.82;2.58;;;;;;;;;;5096709;28;20535;-72
2021/08/03 09:53:38;;;;;;;1.98;1.88;;;;;;;;;;5097642;28;20048;-72
2021/08/03 09:56:05;;;;;;;2.25;2.05;;;;;;;;;;5078628;28;20020;-72
2021/08/03 09:58:32;;;;;;;3.10;2.25;;;;;;;;;;5093895;28;20067;-72
2021/08/03 10:00:58;;;;;;;3.63;2.17;;;;;;;;;;5096525;28;20031;-72
2021/08/03 10:03:24;;;;;;;13.63;3.03;;;;;;;;;;5097515;28;20024;-73
2021/08/03 10:05:50;;;;;;;2.63;2.22;;;;;;;;;;5083232;28;20426;-72
2021/08/03 10:08:17;;;;;;;2.42;2.22;;;;;;;;;;5073598;28;20020;-71
2021/08/03 10:10:44;;;;;;;2.40;2.20;;;;;;;;;;5076418;28;20107;-73
2021/08/03 10:13:10;;;;;;;5.00;2.28;;;;;;;;;;5076538;28;20489;-73
2021/08/03 10:15:36;;;;;;;2.00;1.80;;;;;;;;;;5075428;28;20103;-73
2021/08/03 10:18:06;;;;;;;2.60;2.40;;;;;;;;;;5087037;28;20054;-73
2021/08/03 10:20:32;;;;;;;2.22;2.03;;;;;;;;;;5096796;28;20024;-73
2021/08/03 10:23:00;;;;;;;3.88;2.80;;;;;;;;;;5096228;28;20024;-72
2021/08/03 10:25:34;;;;;;;3.45;2.63;;;;;;;;;;5095810;28;20036;-72
2021/08/03 10:28:00;;;;;;;6.65;2.60;;;;;;;;;;5093207;28;20074;-73
2021/08/03 10:30:46;;;;;;;2.53;2.15;;;;;;;;;;5095701;28;20064;-74
2021/08/03 10:33:32;;;;;;;2.42;2.08;;;;;;;;;;5080878;28;20389;-71
2021/08/03 10:35:59;;;;;;;2.78;2.50;;;;;;;;;;5079511;28;20024;-72
2021/08/03 10:38:32;;;;;;;2.70;2.40;;;;;;;;;;5095952;28;20054;-71
2021/08/03 10:41:01;;;;;;;4.43;2.58;;;;;;;;;;5095024;28;20021;-72
2021/08/03 10:43:27;;;;;;;5.30;2.78;;;;;;;;;;5096397;28;20028;-71
2021/08/03 10:46:13;;;;;;;3.15;2.35;;;;;;;;;;5095389;28;20461;-72
2021/08/03 10:48:43;;;;;;;13.45;2.50;;;;;;;;;;5081060;28;20031;-74
2021/08/03 10:51:30;;;;;;;6.90;3.05;;;;;;;;;;5095603;28;20027;-75
2021/08/03 10:54:04;;;;;;;2.88;2.58;;;;;;;;;;5081112;28;20139;-76
2021/08/03 10:56:50;;;;;;;2.25;2.03;;;;;;;;;;5096607;28;20074;-75
2021/08/03 10:59:36;;;;;;;3.80;2.65;;;;;;;;;;5081236;28;20016;-76
2021/08/03 11:02:03;;;;;;;4.68;2.13;;;;;;;;;;5081011;28;20046;-73
2021/08/03 11:04:49;;;;;;;12.82;2.22;;;;;;;;;;5095831;28;20089;-74
2021/08/03 11:07:31;;;;;;;2.83;2.20;;;;;;;;;;5080805;28;20495;-74
2021/08/03 11:09:58;;;;;;;2.10;1.90;;;;;;;;;;5095681;28;20046;-75
2021/08/03 11:12:40;;;;;;;2.58;2.20;;;;;;;;;;5096207;28;20020;-73
2021/08/03 11:15:26;;;;;;;5.85;2.38;;;;;;;;;;5095745;28;20028;-75
2021/08/03 11:17:54;;;;;;;7.53;2.45;;;;;;;;;;5081737;28;20060;-75
2021/08/03 11:20:40;;;;;;;2.35;2.15;;;;;;;;;;5095341;28;20111;-74
2021/08/03 11:23:10;;;;;;;5.82;2.45;;;;;;;;;;5080818;28;20035;-75
2021/08/03 11:25:36;;;;;;;2.28;2.08;;;;;;;;;;5095612;28;20036;-75
2021/08/03 11:28:10;;;;;;;2.95;2.30;;;;;;;;;;5094388;28;20027;-75
2021/08/03 11:30:36;;;;;;;3.13;2.13;;;;;;;;;;5091508;28;20036;-75
2021/08/03 11:33:02;;;;;;;2.60;2.28;;;;;;;;;;5093380;28;20113;-75
2021/08/03 11:35:28;;;;;;;4.63;2.10;;;;;;;;;;5093779;28;20042;-75
2021/08/03 11:37:54;;;;;;;6.13;2.60;;;;;;;;;;5093799;28;20024;-74
2021/08/03 11:40:20;;;;;;;2.10;1.58;;;;;;;;;;5093287;28;20158;-74
2021/08/03 11:42:47;;;;;;;4.70;2.13;;;;;;;;;;5093141;28;20065;-74
2021/08/03 11:45:14;;;;;;;3.95;2.22;;;;;;;;;;5093211;28;20076;-74
2021/08/03 11:47:41;;;;;;;3.35;2.60;;;;;;;;;;5092751;28;20020;-73
2021/08/03 11:50:08;;;;;;;3.80;2.40;;;;;;;;;;5092575;28;20016;-72
2021/08/03 11:52:35;;;;;;;5.63;2.63;;;;;;;;;;5092486;28;20056;-72
2021/08/03 11:55:01;;;;;;;4.78;2.85;;;;;;;;;;5093126;28;20015;-73
2021/08/03 11:57:32;;;;;;;5.28;2.42;;;;;;;;;;5092413;28;20026;-73
2021/08/03 11:59:59;;;;;;;4.25;2.45;;;;;;;;;;5092879;28;20461;-75
2021/08/03 12:02:25;;;;;;;2.90;2.58;;;;;;;;;;5092431;28;20022;-74
2021/08/03 12:05:08;;;;;;;5.45;2.47;;;;;;;;;;5092916;28;20040;-71
2021/08/03 12:07:34;;;;;;;3.47;1.88;;;;;;;;;;5091897;28;20067;-73
2021/08/03 12:10:00;;;;;;;3.75;2.25;;;;;;;;;;5093530;28;20028;-73
2021/08/03 12:12:26;;;;;;;4.25;2.58;;;;;;;;;;5094038;28;20355;-73
2021/08/03 12:15:05;;;;;;;6.07;2.40;;;;;;;;;;5092493;28;20686;-74
2021/08/03 12:17:31;;;;;;;3.72;2.58;;;;;;;;;;5092799;28;20032;-74
2021/08/03 12:20:03;;;;;;;7.65;2.53;;;;;;;;;;5092336;28;20020;-72
2021/08/03 12:22:30;;;;;;;2.25;2.00;;;;;;;;;;5092953;28;20024;-73
2021/08/03 12:24:57;;;;;;;8.30;2.45;;;;;;;;;;5092249;28;20028;-73
2021/08/03 12:27:23;;;;;;;2.72;2.35;;;;;;;;;;5092064;28;20035;-72
2021/08/03 12:29:49;;;;;;;6.80;4.32;;;;;;;;;;5092489;28;20031;-72
2021/08/03 12:32:34;;;;;;;5.78;2.60;;;;;;;;;;5092949;28;20020;-72
2021/08/03 12:35:08;;;;;;;7.45;6.80;;;;;;;;;;5089560;28;20020;-74
2021/08/03 12:37:34;;;;;;;13.35;4.75;;;;;;;;;;5075779;28;20055;-74
2021/08/03 12:40:00;;;;;;;3.45;3.15;;;;;;;;;;5093257;28;20016;-75
2021/08/03 12:42:33;;;;;;;3.15;2.85;;;;;;;;;;5093910;28;20073;-75
2021/08/03 12:45:10;;;;;;;4.00;2.80;;;;;;;;;;5093712;28;20131;-74
2021/08/03 12:47:36;;;;;;;2.95;2.47;;;;;;;;;;5075285;28;20032;-74
2021/08/03 12:50:03;;;;;;;3.50;2.70;;;;;;;;;;5093942;28;20047;-74
2021/08/03 12:52:29;;;;;;;5.68;3.20;;;;;;;;;;5093523;28;20052;-73
2021/08/03 12:54:58;;;;;;;4.78;2.75;;;;;;;;;;5093891;28;20107;-73
2021/08/03 12:57:24;;;;;;;3.60;2.15;;;;;;;;;;5090344;28;20074;-73
2021/08/03 12:59:50;;;;;;;4.38;2.40;;;;;;;;;;5094093;28;20024;-75
2021/08/03 13:02:17;;;;;;;6.55;2.63;;;;;;;;;;5093525;28;20035;-75
2021/08/03 13:04:43;;;;;;;7.07;2.72;;;;;;;;;;5093583;28;20070;-72
2021/08/03 13:07:09;;;;;;;6.22;3.90;;;;;;;;;;5090287;28;20039;-73
2021/08/03 13:09:36;;;;;;;8.43;3.53;;;;;;;;;;5072077;28;20065;-74
2021/08/03 13:12:02;;;;;;;3.63;3.30;;;;;;;;;;5072833;28;20067;-73
2021/08/03 13:14:28;;;;;;;5.43;3.58;;;;;;;;;;5084970;28;20036;-77
2021/08/03 13:16:56;;;;;;;6.05;3.72;;;;;;;;;;5093524;28;20464;-73
2021/08/03 13:19:23;;;;;;;12.68;3.30;;;;;;;;;;5072111;28;20430;-72
2021/08/03 13:21:49;;;;;;;5.10;2.95;;;;;;;;;;5074741;28;20129;-72
2021/08/03 13:24:15;;;;;;;5.90;2.88;;;;;;;;;;5092984;28;20065;-74
2021/08/03 13:26:41;;;;;;;5.55;3.17;;;;;;;;;;5094123;28;20050;-74
2021/08/03 13:29:07;;;;;;;6.75;2.88;;;;;;;;;;5073708;28;20017;-74
2021/08/03 13:31:33;;;;;;;3.38;3.08;;;;;;;;;;5073233;28;20073;-72
2021/08/03 13:33:59;;;;;;;20.13;3.22;;;;;;;;;;5083082;28;20059;-73
2021/08/03 13:36:26;;;;;;;4.80;2.70;;;;;;;;;;5082710;28;20478;-72
2021/08/03 13:38:52;;;;;;;3.13;2.63;;;;;;;;;;5072977;28;20803;-73
2021/08/03 13:41:18;;;;;;;4.93;3.33;;;;;;;;;;5089197;28;20016;-72
2021/08/03 13:43:44;;;;;;;3.58;2.45;;;;;;;;;;5092522;28;20534;-72
2021/08/03 13:46:10;;;;;;;2.72;2.30;;;;;;;;;;5089305;28;20047;-74
2021/08/03 13:48:36;;;;;;;2.58;2.25;;;;;;;;;;5072550;28;20020;-74
2021/08/03 13:51:03;;;;;;;2.72;2.53;;;;;;;;;;5085271;28;20031;-73
2021/08/03 13:53:29;;;;;;;3.13;2.47;;;;;;;;;;5093573;28;20056;-70
2021/08/03 13:55:55;;;;;;;3.38;2.58;;;;;;;;;;5087947;28;20470;-74
2021/08/03 13:58:21;;;;;;;10.98;2.53;;;;;;;;;;5071778;28;20056;-73
2021/08/03 14:00:47;;;;;;;5.40;2.40;;;;;;;;;;5084462;28;20020;-73
2021/08/03 14:03:13;;;;;;;2.75;2.53;;;;;;;;;;5093430;28;20606;-73
2021/08/03 14:05:40;;;;;;;2.28;2.03;;;;;;;;;;5090335;28;20040;-75
2021/08/03 14:08:06;;;;;;;2.65;2.45;;;;;;;;;;5073409;28;20028;-74
2021/08/03 14:10:32;;;;;;;2.92;2.28;;;;;;;;;;5072671;28;20040;-74
2021/08/03 14:12:58;;;;;;;3.30;2.58;;;;;;;;;;5072694;28;20083;-73
2021/08/03 14:15:24;;;;;;;2.95;2.75;;;;;;;;;;5073417;28;20056;-74
2021/08/03 14:17:50;;;;;;;3.00;2.50;;;;;;;;;;5076094;28;20028;-73
2021/08/03 14:20:16;;;;;;;3.65;2.50;;;;;;;;;;5074723;28;20028;-74
2021/08/03 14:22:42;;;;;;;7.55;2.22;;;;;;;;;;5076806;28;20418;-74
2021/08/03 14:25:09;;;;;;;5.35;2.65;;;;;;;;;;5076613;28;20086;-73
2021/08/03 14:27:36;;;;;;;2.90;2.28;;;;;;;;;;5075727;28;20030;-74
2021/08/03 14:30:02;;;;;;;2.47;2.28;;;;;;;;;;5082913;28;20028;-74
2021/08/03 14:32:28;;;;;;;2.20;2.00;;;;;;;;;;5096707;28;20377;-74
2021/08/03 14:34:54;;;;;;;2.63;2.03;;;;;;;;;;5096821;28;20028;-74
2021/08/03 14:37:20;;;;;;;2.75;2.55;;;;;;;;;;5096177;28;20128;-74
2021/08/03 14:39:47;;;;;;;2.95;2.60;;;;;;;;;;5094041;28;20049;-74
2021/08/03 14:42:13;;;;;;;2.42;2.22;;;;;;;;;;5096385;28;20071;-74
2021/08/03 14:44:39;;;;;;;3.30;2.30;;;;;;;;;;5096276;28;20671;-74